La Estrella, Argentina
Current Conditions -  °F | °C
As of 9:00 PM on Friday 21 Nov 2014 (Local Time) from SASJ Reporting Station
Drizzle Drizzle  
Wind Chill: 19°   Ceiling: 10000
Heat Index: 19°   Visibility: 6mi
Dew Point: 13°   Wind: 12mph
Humidity: 68%   Direction: 230°SW
Pressure: 30"   Gusts: NA
Location:  23.82°S, 64.08°W
Report Text: SASJ 220000Z 23010KT 9999 -DZ SCT017 SCT030OVC100 19/13 Q1016
Loading
Personal Weather Stations






























Interactive Weather Map New forecast layout! Learn more

10-Day Weather Forecast

Advertisements
Track Severe Weather on mobile